EHGR/GLZ METAR and TAF weather

Enter ICAO airport designator
Station Type Date Time Source
EHGR METAR 2021/10/24 22:25 UTC NOAA

EHGR 242225Z AUTO 20007KT 170V240 9999 NCD 07/05 Q1019 BLU


Station Type Date Time Source
EHGR Decoded METAR 2021/10/24 22:25 UTC NOAA

Gilze-Rijen, Netherlands (EHGR) 51-34N 004-56E 24M
Oct 24, 2021 - 06:25 PM EDT / 2021.10.24 2225 UTC
Wind: from the SSW (200 degrees) at 8 MPH (7 KT) (direction variable):0
Visibility: greater than 7 mile(s):0
Temperature: 44 F (7 C)
Dew Point: 41 F (5 C)
Relative Humidity: 87%
Pressure (altimeter): 30.09 in. Hg (1019 hPa)
ob: EHGR 242225Z AUTO 20007KT 170V240 9999 NCD 07/05 Q1019 BLU
cycle: 22

Station Type Date Time Source
EHGR TAF 2021/10/22 13:06 UTC NOAA

TAF TAF EHGR 221244Z 2213/2301 24012G22KT 9999 SCT035
TEMPO 2213/2216 SCT020CB
BECMG 2216/2218 27008KT
TEMPO 2216/2218 4000 RA SHRA SCT015 SCT020CB BKN025
BECMG 2218/2221 VRB02KT

Example: see airport list